createdAt,value
2023-04-04T00:01:13.532Z,100644.75
2023-04-04T00:03:41.529Z,100636.56
2023-04-04T00:06:09.489Z,100644.47
2023-04-04T00:08:37.300Z,100642.09
2023-04-04T00:11:06.622Z,100635.66
2023-04-04T00:13:34.543Z,100639.56
2023-04-04T00:16:02.678Z,100632.06
2023-04-04T00:18:30.343Z,100642.75
2023-04-04T00:20:58.584Z,100633.78
2023-04-04T00:23:26.166Z,100630.16
2023-04-04T00:25:54.323Z,100631.25
2023-04-04T00:28:22.352Z,100634.41
2023-04-04T00:30:50.407Z,100630.47
2023-04-04T00:33:18.148Z,100629.84
2023-04-04T00:35:48.475Z,100625.13
2023-04-04T00:38:16.298Z,100624.50
2023-04-04T00:40:46.432Z,100627.00
2023-04-04T00:43:14.571Z,100624.44
2023-04-04T00:45:43.284Z,100617.88
2023-04-04T00:48:11.178Z,100626.38
2023-04-04T00:50:39.862Z,100629.69
2023-04-04T00:53:08.062Z,100625.28
2023-04-04T00:55:39.782Z,100623.66
2023-04-04T00:58:09.347Z,100611.28
2023-04-04T01:00:37.810Z,100617.88
2023-04-04T01:03:08.030Z,100619.91
2023-04-04T01:05:36.259Z,100613.47
2023-04-04T01:08:04.238Z,100610.16
2023-04-04T01:10:33.194Z,100610.19
2023-04-04T01:13:01.514Z,100611.59
2023-04-04T01:15:30.231Z,100609.56
2023-04-04T01:18:00.319Z,100621.19
2023-04-04T01:20:32.750Z,100613.81
2023-04-04T01:23:02.055Z,100613.63
2023-04-04T01:25:34.142Z,100624.97
2023-04-04T01:28:06.093Z,100620.25
2023-04-04T01:30:36.014Z,100626.69
2023-04-04T01:33:14.198Z,100622.28
2023-04-04T01:35:51.215Z,100626.81
2023-04-04T01:38:23.289Z,100634.31
2023-04-04T01:40:53.732Z,100636.97
2023-04-04T01:43:23.899Z,100643.44
2023-04-04T01:45:52.566Z,100641.53
2023-04-04T01:48:21.026Z,100635.75
2023-04-04T01:50:53.323Z,100634.53
2023-04-04T01:53:22.274Z,100640.03
2023-04-04T01:55:50.252Z,100638.91
2023-04-04T01:58:18.577Z,100640.72
2023-04-04T02:00:46.805Z,100649.63
2023-04-04T02:03:14.437Z,100636.53
2023-04-04T02:05:42.948Z,100650.44
2023-04-04T02:08:10.907Z,100643.16
2023-04-04T02:10:47.973Z,100641.22
2023-04-04T02:13:15.943Z,100648.13
2023-04-04T02:15:45.894Z,100649.63
2023-04-04T02:18:13.981Z,100654.78
2023-04-04T02:20:42.385Z,100656.69
2023-04-04T02:23:10.214Z,100654.75
2023-04-04T02:25:38.146Z,100656.22
2023-04-04T02:28:05.932Z,100651.34
2023-04-04T02:30:33.913Z,100652.13
2023-04-04T02:33:05.210Z,100654.91
2023-04-04T02:35:33.320Z,100650.28
2023-04-04T02:38:01.131Z,100652.94
2023-04-04T02:40:42.521Z,100654.66
2023-04-04T02:43:10.420Z,100653.25
2023-04-04T02:45:39.460Z,100655.78
2023-04-04T02:48:15.952Z,100652.94
2023-04-04T02:50:48.707Z,100646.28
2023-04-04T02:53:17.557Z,100652.63
2023-04-04T02:55:48.095Z,100654.91
2023-04-04T02:58:16.547Z,100646.78
2023-04-04T03:00:44.754Z,100650.41
2023-04-04T03:03:12.645Z,100646.81
2023-04-04T03:05:45.210Z,100646.19
2023-04-04T03:08:12.944Z,100653.22
2023-04-04T03:10:41.965Z,100652.34
2023-04-04T03:13:09.785Z,100648.44
2023-04-04T03:15:38.120Z,100644.06
2023-04-04T03:18:05.906Z,100651.66
2023-04-04T03:20:35.119Z,100651.31
2023-04-04T03:23:02.763Z,100649.56
2023-04-04T03:25:30.766Z,100648.06
2023-04-04T03:27:58.422Z,100643.56
2023-04-04T03:30:28.085Z,100649.09
2023-04-04T03:32:56.921Z,100647.41
2023-04-04T03:35:25.188Z,100656.16
2023-04-04T03:37:54.928Z,100649.63
2023-04-04T03:40:22.893Z,100659.34
2023-04-04T03:42:51.693Z,100655.41
2023-04-04T03:45:21.288Z,100663.75
2023-04-04T03:47:48.996Z,100663.56
2023-04-04T03:50:17.056Z,100665.72
2023-04-04T03:52:52.912Z,100667.41
2023-04-04T03:55:20.880Z,100663.28
2023-04-04T03:57:48.647Z,100663.69
2023-04-04T04:00:18.210Z,100663.56
2023-04-04T04:02:46.602Z,100671.50
2023-04-04T04:05:15.005Z,100668.59
2023-04-04T04:07:45.874Z,100670.34
2023-04-04T04:10:17.187Z,100662.13
2023-04-04T04:12:44.978Z,100675.50
2023-04-04T04:15:13.130Z,100676.38
2023-04-04T04:17:43.506Z,100670.81
2023-04-04T04:20:13.754Z,100668.59
2023-04-04T04:22:49.934Z,100669.09
2023-04-04T04:25:19.088Z,100665.47
2023-04-04T04:27:57.865Z,100669.88
2023-04-04T04:30:27.845Z,100675.03
2023-04-04T04:32:56.442Z,100672.66
2023-04-04T04:35:31.136Z,100674.72
2023-04-04T04:37:59.846Z,100675.13
2023-04-04T04:40:28.056Z,100681.75
2023-04-04T04:43:01.696Z,100686.38
2023-04-04T04:45:30.078Z,100685.44
2023-04-04T04:48:09.762Z,100688.28
2023-04-04T04:50:46.207Z,100704.06
2023-04-04T04:53:17.096Z,100697.25
2023-04-04T04:55:47.541Z,100699.06
2023-04-04T04:58:17.728Z,100696.72
2023-04-04T05:00:50.335Z,100696.72
2023-04-04T05:03:18.305Z,100694.81
2023-04-04T05:05:51.591Z,100700.81
2023-04-04T05:08:19.357Z,100703.44
2023-04-04T05:11:05.662Z,100699.91
2023-04-04T05:13:35.419Z,100702.22
2023-04-04T05:16:05.064Z,100703.38
2023-04-04T05:18:34.961Z,100707.19
2023-04-04T05:21:04.816Z,100703.38
2023-04-04T05:23:33.165Z,100703.31
2023-04-04T05:26:03.331Z,100713.03
2023-04-04T05:28:35.789Z,100711.13
2023-04-04T05:31:06.969Z,100721.38
2023-04-04T05:33:36.955Z,100717.94
2023-04-04T05:36:14.204Z,100722.72
2023-04-04T05:38:48.160Z,100725.50
2023-04-04T05:41:22.412Z,100729.19
2023-04-04T05:43:52.618Z,100734.41
2023-04-04T05:46:24.819Z,100732.47
2023-04-04T05:48:54.571Z,100737.81
2023-04-04T05:51:24.281Z,100725.03
2023-04-04T05:54:18.589Z,100736.56
2023-04-04T05:56:48.078Z,100741.09
2023-04-04T05:59:39.244Z,100733.72
2023-04-04T06:02:10.364Z,100744.69
2023-04-04T06:04:42.161Z,100730.69
2023-04-04T06:07:12.430Z,100739.00
2023-04-04T06:09:41.526Z,100737.75
2023-04-04T06:12:09.927Z,100744.56
2023-04-04T06:14:38.280Z,100741.75
2023-04-04T06:17:08.342Z,100743.16
2023-04-04T06:19:36.560Z,100744.59
2023-04-04T06:22:04.783Z,100746.50
2023-04-04T06:24:37.416Z,100746.72
2023-04-04T06:27:06.868Z,100744.84
2023-04-04T06:29:37.705Z,100747.50
2023-04-04T06:32:08.077Z,100752.69
2023-04-04T06:34:40.024Z,100753.44
2023-04-04T06:37:09.069Z,100759.22
2023-04-04T06:39:44.083Z,100761.03
2023-04-04T06:42:21.617Z,100753.31
2023-04-04T06:44:52.212Z,100760.97
2023-04-04T06:47:21.751Z,100754.16
2023-04-04T06:49:49.651Z,100759.09
2023-04-04T06:52:19.029Z,100754.72
2023-04-04T06:54:46.825Z,100750.00
2023-04-04T06:57:16.134Z,100756.13
2023-04-04T06:59:45.188Z,100748.47
2023-04-04T07:02:13.627Z,100753.03
2023-04-04T07:04:42.209Z,100748.16
2023-04-04T07:07:10.428Z,100753.16
2023-04-04T07:09:38.286Z,100754.44
2023-04-04T07:12:06.454Z,100753.81
2023-04-04T07:14:34.301Z,100745.13
2023-04-04T07:17:10.660Z,100750.34
2023-04-04T07:19:45.185Z,100749.53
2023-04-04T07:22:13.579Z,100745.47
2023-04-04T07:24:42.695Z,100743.38
2023-04-04T07:27:11.536Z,100746.50
2023-04-04T07:29:39.348Z,100745.59
2023-04-04T07:32:07.695Z,100748.59
2023-04-04T07:34:35.546Z,100753.66
2023-04-04T07:37:04.062Z,100753.19
2023-04-04T07:39:32.233Z,100752.72
2023-04-04T07:42:00.788Z,100748.41
2023-04-04T07:44:28.642Z,100759.72
2023-04-04T07:47:08.556Z,100762.56
2023-04-04T07:49:37.811Z,100753.53
2023-04-04T07:52:06.751Z,100759.13
2023-04-04T07:54:34.844Z,100761.91
2023-04-04T07:57:06.258Z,100767.28
2023-04-04T07:59:33.961Z,100758.94
2023-04-04T08:02:02.044Z,100767.97
2023-04-04T08:04:29.923Z,100765.94
2023-04-04T08:06:58.143Z,100757.72
2023-04-04T08:09:25.956Z,100766.16
2023-04-04T08:11:53.937Z,100755.81
2023-04-04T08:14:21.649Z,100761.41
2023-04-04T08:16:49.749Z,100755.72
2023-04-04T08:19:18.047Z,100760.06
2023-04-04T08:21:46.404Z,100769.50
2023-04-04T08:24:14.885Z,100759.63
2023-04-04T08:26:45.262Z,100756.03
2023-04-04T08:29:17.205Z,100759.91
2023-04-04T08:31:45.281Z,100762.44
2023-04-04T08:34:13.730Z,100757.41
2023-04-04T08:36:41.955Z,100766.38
2023-04-04T08:39:09.755Z,100749.88
2023-04-04T08:41:38.245Z,100753.03
2023-04-04T08:44:06.437Z,100763.56
2023-04-04T08:46:34.766Z,100759.75
2023-04-04T08:49:04.507Z,100760.03
2023-04-04T08:51:33.328Z,100758.47
2023-04-04T08:54:01.602Z,100776.44
2023-04-04T08:56:30.031Z,100770.91
2023-04-04T08:58:59.223Z,100760.16
2023-04-04T09:01:29.928Z,100768.47
2023-04-04T09:03:58.716Z,100763.78
2023-04-04T09:06:28.126Z,100760.88
2023-04-04T09:08:58.056Z,100764.16
2023-04-04T09:11:27.281Z,100760.34
2023-04-04T09:13:57.177Z,100767.00
2023-04-04T09:16:26.436Z,100758.59
2023-04-04T09:18:54.139Z,100757.53
2023-04-04T09:21:22.253Z,100751.16
2023-04-04T09:23:58.264Z,100755.69
2023-04-04T09:26:26.341Z,100761.06
2023-04-04T09:28:54.286Z,100763.00
2023-04-04T09:31:24.570Z,100763.34
2023-04-04T09:33:52.456Z,100759.69
2023-04-04T09:36:20.755Z,100751.19
2023-04-04T09:38:49.619Z,100756.94
2023-04-04T09:41:19.004Z,100754.56
2023-04-04T09:43:46.975Z,100756.16
2023-04-04T09:46:16.265Z,100755.34
2023-04-04T09:48:48.854Z,100751.44
2023-04-04T09:51:16.942Z,100746.00
2023-04-04T09:53:49.546Z,100748.88
2023-04-04T09:56:17.700Z,100745.19
2023-04-04T09:59:00.771Z,100751.31
2023-04-04T10:01:31.944Z,100744.91
2023-04-04T10:03:59.960Z,100750.75
2023-04-04T10:06:28.213Z,100755.84
2023-04-04T10:08:57.035Z,100754.97
2023-04-04T10:11:43.117Z,100750.00
2023-04-04T10:14:11.094Z,100748.75
2023-04-04T10:16:44.940Z,100745.84
2023-04-04T10:19:15.965Z,100734.34
2023-04-04T10:21:44.019Z,100736.38
2023-04-04T10:24:11.708Z,100735.69
2023-04-04T10:26:39.770Z,100741.03
2023-04-04T10:29:07.471Z,100733.94
2023-04-04T10:31:38.550Z,100727.97
2023-04-04T10:34:17.746Z,100722.59
2023-04-04T10:36:54.205Z,100735.91
2023-04-04T10:39:25.343Z,100736.78
2023-04-04T10:41:54.203Z,100725.22
2023-04-04T10:44:34.903Z,100731.41
2023-04-04T10:47:06.723Z,100726.78
2023-04-04T10:49:34.723Z,100733.75
2023-04-04T10:52:03.146Z,100721.31
2023-04-04T10:54:30.896Z,100730.28
2023-04-04T10:57:01.641Z,100730.19
2023-04-04T10:59:29.546Z,100722.72
2023-04-04T11:01:59.081Z,100712.75
2023-04-04T11:04:38.524Z,100720.38
2023-04-04T11:07:07.217Z,100726.91
2023-04-04T11:09:53.579Z,100722.25
2023-04-04T11:12:24.105Z,100718.53
2023-04-04T11:15:10.529Z,100713.81
2023-04-04T11:17:50.499Z,100722.00
2023-04-04T11:20:18.224Z,100721.00
2023-04-04T11:22:46.223Z,100713.19
2023-04-04T11:25:33.221Z,100699.38
2023-04-04T11:28:05.375Z,100711.22
2023-04-04T11:30:37.976Z,100704.72
2023-04-04T11:33:08.249Z,100702.91
2023-04-04T11:35:38.849Z,100715.94
2023-04-04T11:38:14.220Z,100705.53
2023-04-04T11:40:43.012Z,100696.44
2023-04-04T11:43:12.177Z,100691.34
2023-04-04T11:45:46.280Z,100693.38
2023-04-04T11:48:16.294Z,100710.53
2023-04-04T11:50:46.014Z,100710.25
2023-04-04T11:53:13.995Z,100686.03
2023-04-04T11:55:43.057Z,100693.41
2023-04-04T11:58:13.282Z,100694.88
2023-04-04T12:00:41.733Z,100691.41
2023-04-04T12:03:13.904Z,100681.66
2023-04-04T12:05:43.670Z,100684.91
2023-04-04T12:08:12.716Z,100693.63
2023-04-04T12:10:41.078Z,100670.22
2023-04-04T12:13:09.974Z,100676.72
2023-04-04T12:15:38.341Z,100672.56
2023-04-04T12:18:10.014Z,100670.16
2023-04-04T12:20:38.735Z,100670.44
2023-04-04T12:23:06.883Z,100662.25
2023-04-04T12:25:35.209Z,100666.09
2023-04-04T12:28:04.758Z,100665.47
2023-04-04T12:30:32.509Z,100654.28
2023-04-04T12:33:00.882Z,100658.63
2023-04-04T12:35:29.766Z,100657.13
2023-04-04T12:37:58.701Z,100658.53
2023-04-04T12:40:29.743Z,100648.72
2023-04-04T12:42:57.689Z,100646.53
2023-04-04T12:45:26.231Z,100640.84
2023-04-04T12:47:54.830Z,100634.03
2023-04-04T12:50:24.084Z,100632.13
2023-04-04T12:52:55.461Z,100624.06
2023-04-04T12:55:31.716Z,100625.75
2023-04-04T12:58:01.053Z,100623.66
2023-04-04T13:00:29.916Z,100629.66
2023-04-04T13:02:57.917Z,100631.75
2023-04-04T13:05:25.965Z,100624.31
2023-04-04T13:08:05.261Z,100616.22
2023-04-04T13:10:52.878Z,100619.09
2023-04-04T13:13:53.138Z,100614.56
2023-04-04T13:16:34.211Z,100606.88
2023-04-04T13:19:02.567Z,100624.44
2023-04-04T13:21:31.198Z,100611.22
2023-04-04T13:23:59.332Z,100603.59
2023-04-04T13:26:28.139Z,100599.97
2023-04-04T13:28:56.142Z,100605.59
2023-04-04T13:31:23.892Z,100609.44
2023-04-04T13:33:51.973Z,100596.53
2023-04-04T13:36:19.816Z,100600.50
2023-04-04T13:38:47.768Z,100592.56
2023-04-04T13:41:15.515Z,100593.81
2023-04-04T13:43:43.409Z,100585.06
2023-04-04T13:46:11.302Z,100585.09
2023-04-04T13:48:39.373Z,100580.38
2023-04-04T13:51:07.494Z,100586.81
2023-04-04T13:53:35.405Z,100588.78
2023-04-04T13:56:17.954Z,100580.66
2023-04-04T13:58:46.583Z,100575.47
2023-04-04T14:01:14.267Z,100576.19
2023-04-04T14:03:42.526Z,100570.66
2023-04-04T14:06:11.134Z,100575.47
2023-04-04T14:08:40.123Z,100584.53
2023-04-04T14:11:07.987Z,100576.44
2023-04-04T14:13:36.994Z,100576.09
2023-04-04T14:16:04.846Z,100573.22
2023-04-04T14:18:34.719Z,100568.88
2023-04-04T14:21:03.207Z,100570.31
2023-04-04T14:23:31.767Z,100571.88
2023-04-04T14:25:59.426Z,100577.97
2023-04-04T14:28:27.716Z,100582.78
2023-04-04T14:30:55.411Z,100573.84
2023-04-04T14:33:23.803Z,100579.41
2023-04-04T14:35:51.911Z,100574.56
2023-04-04T14:38:19.902Z,100573.72
2023-04-04T14:40:48.682Z,100578.03
2023-04-04T14:43:16.633Z,100568.94
2023-04-04T14:45:44.262Z,100567.03
2023-04-04T14:48:12.194Z,100570.44
2023-04-04T14:50:40.583Z,100570.16
2023-04-04T14:53:08.509Z,100582.06
2023-04-04T14:55:36.241Z,100572.31
2023-04-04T14:58:04.202Z,100563.97
2023-04-04T15:00:32.004Z,100571.91
2023-04-04T15:02:59.999Z,100569.75
2023-04-04T15:05:27.803Z,100571.81
2023-04-04T15:07:56.050Z,100564.44
2023-04-04T15:10:24.048Z,100568.66
2023-04-04T15:12:52.097Z,100558.03
2023-04-04T15:15:21.110Z,100565.59
2023-04-04T15:17:50.952Z,100568.25
2023-04-04T15:20:18.606Z,100570.50
2023-04-04T15:22:46.793Z,100561.53
2023-04-04T15:25:14.467Z,100563.69
2023-04-04T15:27:42.573Z,100565.97
2023-04-04T15:30:10.346Z,100572.31
2023-04-04T15:32:38.368Z,100572.44
2023-04-04T15:35:06.937Z,100565.03
2023-04-04T15:37:34.861Z,100568.00
2023-04-04T15:40:02.462Z,100568.66
2023-04-04T15:42:31.993Z,100569.53
2023-04-04T15:44:59.754Z,100571.88
2023-04-04T15:47:27.741Z,100573.03
2023-04-04T15:49:55.742Z,100569.63
2023-04-04T15:52:23.692Z,100583.00
2023-04-04T15:54:51.522Z,100577.28
2023-04-04T15:57:19.842Z,100576.81
2023-04-04T15:59:47.749Z,100574.16
2023-04-04T16:02:16.528Z,100568.00
2023-04-04T16:04:44.165Z,100576.25
2023-04-04T16:07:12.135Z,100577.50
2023-04-04T16:09:39.903Z,100565.28
2023-04-04T16:12:08.002Z,100565.44
2023-04-04T16:14:35.699Z,100567.69
2023-04-04T16:17:03.736Z,100567.13
2023-04-04T16:19:31.389Z,100566.53
2023-04-04T16:21:59.553Z,100575.72
2023-04-04T16:24:27.688Z,100578.34
2023-04-04T16:26:56.466Z,100580.50
2023-04-04T16:29:24.338Z,100572.44
2023-04-04T16:31:53.374Z,100584.97
2023-04-04T16:34:20.977Z,100580.22
2023-04-04T16:36:49.450Z,100580.34
2023-04-04T16:39:17.302Z,100583.44
2023-04-04T16:41:45.204Z,100583.16
2023-04-04T16:44:13.704Z,100584.47
2023-04-04T16:46:41.890Z,100589.34
2023-04-04T16:49:10.191Z,100589.41
2023-04-04T16:51:38.377Z,100595.97
2023-04-04T16:54:06.288Z,100593.34
2023-04-04T16:56:34.656Z,100594.47
2023-04-04T16:59:02.383Z,100591.44
2023-04-04T17:01:31.947Z,100600.19
2023-04-04T17:03:59.978Z,100599.97
2023-04-04T17:06:28.233Z,100595.72
2023-04-04T17:08:56.174Z,100589.94
2023-04-04T17:11:24.242Z,100598.97
2023-04-04T17:13:52.128Z,100598.28
2023-04-04T17:16:20.255Z,100597.50
2023-04-04T17:18:48.121Z,100597.13
2023-04-04T17:21:16.080Z,100602.19
2023-04-04T17:23:43.989Z,100606.38
2023-04-04T17:26:12.549Z,100604.72
2023-04-04T17:28:42.321Z,100608.75
2023-04-04T17:31:11.987Z,100609.22
2023-04-04T17:33:39.895Z,100610.25
2023-04-04T17:36:08.468Z,100614.91
2023-04-04T17:38:36.678Z,100615.22
2023-04-04T17:41:04.988Z,100622.75
2023-04-04T17:43:32.805Z,100617.53
2023-04-04T17:46:02.989Z,100615.31
2023-04-04T17:48:32.648Z,100621.63
2023-04-04T17:51:00.684Z,100628.16
2023-04-04T17:53:28.572Z,100627.63
2023-04-04T17:55:56.733Z,100632.69
2023-04-04T17:58:26.074Z,100636.59
2023-04-04T18:00:56.321Z,100642.75
2023-04-04T18:03:24.516Z,100642.84
2023-04-04T18:05:53.085Z,100657.53
2023-04-04T18:08:22.012Z,100656.50
2023-04-04T18:10:51.635Z,100659.22
2023-04-04T18:13:19.248Z,100664.84
2023-04-04T18:15:47.687Z,100670.72
2023-04-04T18:18:15.424Z,100670.91
2023-04-04T18:20:43.826Z,100680.94
2023-04-04T18:23:12.090Z,100680.13
2023-04-04T18:25:40.327Z,100686.41
2023-04-04T18:28:08.272Z,100691.19
2023-04-04T18:30:37.509Z,100701.38
2023-04-04T18:33:06.285Z,100703.19
2023-04-04T18:35:34.520Z,100700.91
2023-04-04T18:38:02.671Z,100707.84
2023-04-04T18:40:31.271Z,100714.78
2023-04-04T18:42:59.290Z,100723.91
2023-04-04T18:45:37.402Z,100726.88
2023-04-04T18:48:08.514Z,100725.09
2023-04-04T18:50:37.110Z,100729.34
2023-04-04T18:53:05.343Z,100736.44
2023-04-04T18:55:33.782Z,100737.44
2023-04-04T18:58:01.547Z,100740.59
2023-04-04T19:00:29.523Z,100738.25
2023-04-04T19:02:57.789Z,100754.19
2023-04-04T19:05:25.893Z,100756.25
2023-04-04T19:07:54.702Z,100754.19
2023-04-04T19:10:22.776Z,100761.38
2023-04-04T19:12:51.081Z,100763.50
2023-04-04T19:15:19.408Z,100772.31
2023-04-04T19:17:47.416Z,100773.25
2023-04-04T19:20:15.668Z,100766.50
2023-04-04T19:22:43.407Z,100775.19
2023-04-04T19:25:11.883Z,100782.13
2023-04-04T19:27:39.825Z,100785.28
2023-04-04T19:30:26.613Z,100791.03
2023-04-04T19:32:54.470Z,100799.69
2023-04-04T19:35:43.392Z,100802.28
2023-04-04T19:38:13.379Z,100809.19
2023-04-04T19:40:47.307Z,100809.03
2023-04-04T19:43:18.565Z,100810.13
2023-04-04T19:45:50.974Z,100813.28
2023-04-04T19:48:38.033Z,100820.69
2023-04-04T19:51:09.215Z,100818.03
2023-04-04T19:53:37.545Z,100817.84
2023-04-04T19:56:10.968Z,100820.38
2023-04-04T19:58:39.071Z,100827.00
2023-04-04T20:01:07.831Z,100834.88
2023-04-04T20:03:37.871Z,100835.50
2023-04-04T20:06:13.447Z,100832.03
2023-04-04T20:08:44.400Z,100836.94
2023-04-04T20:11:13.708Z,100831.38
2023-04-04T20:13:41.685Z,100836.88
2023-04-04T20:16:16.827Z,100835.19
2023-04-04T20:18:45.302Z,100835.31
2023-04-04T20:21:17.170Z,100838.47
2023-04-04T20:23:47.710Z,100838.31
2023-04-04T20:26:34.385Z,100846.69
2023-04-04T20:29:02.820Z,100848.88
2023-04-04T20:31:34.157Z,100851.84
2023-04-04T20:34:02.079Z,100855.97
2023-04-04T20:36:33.243Z,100861.03
2023-04-04T20:39:00.959Z,100861.66
2023-04-04T20:41:29.034Z,100867.47
2023-04-04T20:43:57.972Z,100877.09
2023-04-04T20:46:27.120Z,100870.31
2023-04-04T20:48:57.078Z,100880.84
2023-04-04T20:51:27.933Z,100875.66
2023-04-04T20:53:56.750Z,100879.13
2023-04-04T20:56:36.963Z,100885.41
2023-04-04T20:59:27.195Z,100884.41
2023-04-04T21:01:55.946Z,100889.16
2023-04-04T21:04:25.895Z,100889.97
2023-04-04T21:06:53.914Z,100893.50
2023-04-04T21:09:21.536Z,100887.09
2023-04-04T21:11:49.514Z,100900.81
2023-04-04T21:14:23.938Z,100904.75
2023-04-04T21:16:51.916Z,100899.56
2023-04-04T21:19:21.751Z,100906.03
2023-04-04T21:21:51.386Z,100900.47
2023-04-04T21:24:19.106Z,100906.81
2023-04-04T21:26:48.857Z,100903.59
2023-04-04T21:29:17.981Z,100906.78
2023-04-04T21:31:47.005Z,100905.94
2023-04-04T21:34:15.906Z,100913.50
2023-04-04T21:36:44.542Z,100913.50
2023-04-04T21:39:13.895Z,100910.84
2023-04-04T21:41:43.669Z,100924.06
2023-04-04T21:44:11.489Z,100926.06
2023-04-04T21:46:40.401Z,100929.06
2023-04-04T21:49:09.202Z,100924.78
2023-04-04T21:51:37.295Z,100930.69
2023-04-04T21:54:05.238Z,100933.34
2023-04-04T21:56:36.052Z,100941.59
2023-04-04T21:59:05.433Z,100934.56
2023-04-04T22:01:33.528Z,100938.44
2023-04-04T22:04:01.652Z,100931.06
2023-04-04T22:06:31.026Z,100941.28
2023-04-04T22:08:59.408Z,100934.63
2023-04-04T22:11:27.990Z,100933.94
2023-04-04T22:14:07.494Z,100937.22
2023-04-04T22:16:43.280Z,100940.03
2023-04-04T22:19:11.761Z,100937.94
2023-04-04T22:21:47.029Z,100939.47
2023-04-04T22:24:16.020Z,100943.72
2023-04-04T22:26:46.342Z,100952.72
2023-04-04T22:29:16.301Z,100948.69
2023-04-04T22:31:44.654Z,100948.25
2023-04-04T22:34:14.794Z,100942.94
2023-04-04T22:36:44.083Z,100946.44
2023-04-04T22:39:12.207Z,100951.63
2023-04-04T22:41:40.195Z,100954.59
2023-04-04T22:44:07.762Z,100954.00
2023-04-04T22:46:37.269Z,100954.22
2023-04-04T22:49:06.380Z,100958.06
2023-04-04T22:51:44.243Z,100951.69
2023-04-04T22:54:14.620Z,100960.66
2023-04-04T22:56:43.154Z,100954.75
2023-04-04T22:59:11.044Z,100957.13
2023-04-04T23:01:39.470Z,100953.63
2023-04-04T23:04:07.206Z,100962.03
2023-04-04T23:06:36.295Z,100962.88
2023-04-04T23:09:04.369Z,100968.47
2023-04-04T23:11:32.418Z,100965.47
2023-04-04T23:14:00.744Z,100957.59
2023-04-04T23:16:29.180Z,100959.50
2023-04-04T23:18:57.356Z,100971.88
2023-04-04T23:21:25.361Z,100971.09
2023-04-04T23:23:52.984Z,100963.66
2023-04-04T23:26:20.988Z,100968.63
2023-04-04T23:28:49.005Z,100970.34
2023-04-04T23:31:17.407Z,100968.22
2023-04-04T23:33:45.244Z,100969.66
2023-04-04T23:36:13.286Z,100970.81
2023-04-04T23:38:41.508Z,100971.00
2023-04-04T23:41:10.234Z,100977.31
2023-04-04T23:43:38.837Z,100973.31
2023-04-04T23:46:06.532Z,100975.56
2023-04-04T23:48:36.527Z,100968.56
2023-04-04T23:51:04.414Z,100972.41
2023-04-04T23:53:32.474Z,100969.84
2023-04-04T23:56:00.738Z,100979.91
2023-04-04T23:58:28.699Z,100969.22
